sensor_id;sensor_type;location;lat;lon;timestamp;temperature;humidity
54516;DHT22;40422;45.892;4.738;2023-02-28T04:01:23;-0.70;99.90
54516;DHT22;40422;45.892;4.738;2023-02-28T04:03:51;-0.70;99.90
54516;DHT22;40422;45.892;4.738;2023-02-28T04:06:19;-0.70;99.90
54516;DHT22;40422;45.892;4.738;2023-02-28T04:08:46;-0.70;99.90
54516;DHT22;40422;45.892;4.738;2023-02-28T04:11:17;-0.80;99.90
54516;DHT22;40422;45.892;4.738;2023-02-28T04:13:44;-0.80;99.90
54516;DHT22;40422;45.892;4.738;2023-02-28T04:16:10;-0.80;99.90
54516;DHT22;40422;45.892;4.738;2023-02-28T04:18:38;-0.80;99.90
54516;DHT22;40422;45.892;4.738;2023-02-28T04:21:04;-0.70;99.90
54516;DHT22;40422;45.892;4.738;2023-02-28T04:23:31;-0.80;99.90
54516;DHT22;40422;45.892;4.738;2023-02-28T04:25:57;-0.70;99.90
54516;DHT22;40422;45.892;4.738;2023-02-28T04:28:23;-0.70;99.90
54516;DHT22;40422;45.892;4.738;2023-02-28T04:30:55;-0.70;99.90
54516;DHT22;40422;45.892;4.738;2023-02-28T04:33:20;-0.70;99.90
54516;DHT22;40422;45.892;4.738;2023-02-28T04:35:46;-0.70;99.90
54516;DHT22;40422;45.892;4.738;2023-02-28T04:38:12;-0.80;99.90
54516;DHT22;40422;45.892;4.738;2023-02-28T04:40:37;-0.80;99.90
54516;DHT22;40422;45.892;4.738;2023-02-28T04:43:03;-0.80;99.90
54516;DHT22;40422;45.892;4.738;2023-02-28T04:45:29;-0.80;99.90
54516;DHT22;40422;45.892;4.738;2023-02-28T04:47:57;-0.90;99.90
54516;DHT22;40422;45.892;4.738;2023-02-28T04:50:23;-0.90;99.90
54516;DHT22;40422;45.892;4.738;2023-02-28T04:52:49;-0.90;99.90
54516;DHT22;40422;45.892;4.738;2023-02-28T04:55:14;-0.90;99.90
54516;DHT22;40422;45.892;4.738;2023-02-28T04:57:40;-0.90;99.90
54516;DHT22;40422;45.892;4.738;2023-02-28T05:00:09;-1.00;99.90
54516;DHT22;40422;45.892;4.738;2023-02-28T05:02:37;-1.00;99.90
54516;DHT22;40422;45.892;4.738;2023-02-28T05:05:04;-1.00;99.90
54516;DHT22;40422;45.892;4.738;2023-02-28T05:07:29;-1.00;99.90
54516;DHT22;40422;45.892;4.738;2023-02-28T05:09:55;-1.10;99.90
54516;DHT22;40422;45.892;4.738;2023-02-28T05:12:20;-1.10;99.90
54516;DHT22;40422;45.892;4.738;2023-02-28T05:14:46;-1.00;99.90
54516;DHT22;40422;45.892;4.738;2023-02-28T05:17:12;-1.10;99.90
54516;DHT22;40422;45.892;4.738;2023-02-28T05:19:37;-1.10;99.90
54516;DHT22;40422;45.892;4.738;2023-02-28T05:22:03;-1.10;99.90
54516;DHT22;40422;45.892;4.738;2023-02-28T05:24:28;-1.20;99.90
54516;DHT22;40422;45.892;4.738;2023-02-28T05:26:54;-1.20;99.90
54516;DHT22;40422;45.892;4.738;2023-02-28T05:29:20;-1.20;99.90
54516;DHT22;40422;45.892;4.738;2023-02-28T05:31:46;-1.20;99.90
54516;DHT22;40422;45.892;4.738;2023-02-28T05:34:12;-1.20;99.90
54516;DHT22;40422;45.892;4.738;2023-02-28T05:36:38;-1.30;99.90
54516;DHT22;40422;45.892;4.738;2023-02-28T05:39:06;-1.30;99.90
54516;DHT22;40422;45.892;4.738;2023-02-28T05:41:32;-1.30;99.90
54516;DHT22;40422;45.892;4.738;2023-02-28T05:43:58;-1.30;99.90
54516;DHT22;40422;45.892;4.738;2023-02-28T05:46:25;-1.40;99.90
54516;DHT22;40422;45.892;4.738;2023-02-28T05:48:50;-1.40;99.90
54516;DHT22;40422;45.892;4.738;2023-02-28T05:51:16;-1.40;99.90
54516;DHT22;40422;45.892;4.738;2023-02-28T05:53:43;-1.40;99.90
54516;DHT22;40422;45.892;4.738;2023-02-28T05:56:08;-1.40;99.90
54516;DHT22;40422;45.892;4.738;2023-02-28T05:58:34;-1.40;99.90
54516;DHT22;40422;45.892;4.738;2023-02-28T06:01:01;-1.40;99.90
54516;DHT22;40422;45.892;4.738;2023-02-28T06:03:44;-1.40;99.90
54516;DHT22;40422;45.892;4.738;2023-02-28T06:06:09;-1.40;99.90
54516;DHT22;40422;45.892;4.738;2023-02-28T06:08:35;-1.50;99.90
54516;DHT22;40422;45.892;4.738;2023-02-28T06:11:03;-1.50;99.90
54516;DHT22;40422;45.892;4.738;2023-02-28T06:13:29;-1.50;99.90
54516;DHT22;40422;45.892;4.738;2023-02-28T06:15:55;-1.50;99.90
54516;DHT22;40422;45.892;4.738;2023-02-28T06:18:20;-1.50;99.90
54516;DHT22;40422;45.892;4.738;2023-02-28T06:20:53;-1.50;99.90
54516;DHT22;40422;45.892;4.738;2023-02-28T06:23:20;-1.40;99.90
54516;DHT22;40422;45.892;4.738;2023-02-28T06:25:46;-1.40;99.90
54516;DHT22;40422;45.892;4.738;2023-02-28T06:28:11;-1.40;99.90
54516;DHT22;40422;45.892;4.738;2023-02-28T06:30:38;-1.40;99.90
54516;DHT22;40422;45.892;4.738;2023-02-28T06:33:04;-1.30;99.90
54516;DHT22;40422;45.892;4.738;2023-02-28T06:35:30;-1.20;99.90
54516;DHT22;40422;45.892;4.738;2023-02-28T06:37:56;-1.20;99.90
54516;DHT22;40422;45.892;4.738;2023-02-28T06:40:22;-1.20;99.90
54516;DHT22;40422;45.892;4.738;2023-02-28T06:42:47;-1.20;99.90
54516;DHT22;40422;45.892;4.738;2023-02-28T06:45:13;-1.20;99.90
54516;DHT22;40422;45.892;4.738;2023-02-28T06:47:40;-1.10;99.90
54516;DHT22;40422;45.892;4.738;2023-02-28T06:50:09;-1.10;99.90
54516;DHT22;40422;45.892;4.738;2023-02-28T06:52:35;-1.00;99.90
54516;DHT22;40422;45.892;4.738;2023-02-28T06:55:05;-1.00;99.90
54516;DHT22;40422;45.892;4.738;2023-02-28T06:57:33;-0.90;99.90
54516;DHT22;40422;45.892;4.738;2023-02-28T07:00:05;-0.80;99.90
54516;DHT22;40422;45.892;4.738;2023-02-28T07:02:33;-0.70;99.90
54516;DHT22;40422;45.892;4.738;2023-02-28T07:04:58;-0.60;99.90
54516;DHT22;40422;45.892;4.738;2023-02-28T07:07:24;-0.50;99.90
54516;DHT22;40422;45.892;4.738;2023-02-28T07:09:50;-0.40;99.90
54516;DHT22;40422;45.892;4.738;2023-02-28T07:12:15;-0.30;99.90
54516;DHT22;40422;45.892;4.738;2023-02-28T07:14:41;-0.20;99.90
54516;DHT22;40422;45.892;4.738;2023-02-28T07:17:08;-0.20;99.90
54516;DHT22;40422;45.892;4.738;2023-02-28T07:19:34;-0.10;99.90
54516;DHT22;40422;45.892;4.738;2023-02-28T07:21:59;-0.10;99.90
54516;DHT22;40422;45.892;4.738;2023-02-28T07:24:26;0.00;99.90
54516;DHT22;40422;45.892;4.738;2023-02-28T07:26:53;0.10;99.90
54516;DHT22;40422;45.892;4.738;2023-02-28T07:29:19;0.10;99.90
54516;DHT22;40422;45.892;4.738;2023-02-28T07:31:45;0.20;99.90
54516;DHT22;40422;45.892;4.738;2023-02-28T07:34:12;0.20;99.90
54516;DHT22;40422;45.892;4.738;2023-02-28T07:36:37;0.30;99.90
54516;DHT22;40422;45.892;4.738;2023-02-28T07:39:03;0.40;99.90
54516;DHT22;40422;45.892;4.738;2023-02-28T07:41:30;0.40;99.90
54516;DHT22;40422;45.892;4.738;2023-02-28T07:43:59;0.50;99.90
54516;DHT22;40422;45.892;4.738;2023-02-28T07:46:25;0.60;99.90
54516;DHT22;40422;45.892;4.738;2023-02-28T07:48:51;0.70;99.90
54516;DHT22;40422;45.892;4.738;2023-02-28T07:51:18;0.90;99.90
54516;DHT22;40422;45.892;4.738;2023-02-28T07:53:44;1.30;99.90
54516;DHT22;40422;45.892;4.738;2023-02-28T07:56:09;1.50;99.90
54516;DHT22;40422;45.892;4.738;2023-02-28T07:58:36;1.50;99.90
54516;DHT22;40422;45.892;4.738;2023-02-28T08:01:09;1.50;99.90
54516;DHT22;40422;45.892;4.738;2023-02-28T08:03:35;1.60;99.90
54516;DHT22;40422;45.892;4.738;2023-02-28T08:06:02;1.70;99.90
54516;DHT22;40422;45.892;4.738;2023-02-28T08:08:28;1.80;99.90
54516;DHT22;40422;45.892;4.738;2023-02-28T08:10:59;2.00;99.90
54516;DHT22;40422;45.892;4.738;2023-02-28T08:13:25;2.30;99.90
54516;DHT22;40422;45.892;4.738;2023-02-28T08:15:54;2.60;99.90
54516;DHT22;40422;45.892;4.738;2023-02-28T08:18:20;2.70;99.90
54516;DHT22;40422;45.892;4.738;2023-02-28T08:20:46;2.80;99.90
54516;DHT22;40422;45.892;4.738;2023-02-28T08:23:12;2.90;99.90
54516;DHT22;40422;45.892;4.738;2023-02-28T08:25:37;2.80;99.90
54516;DHT22;40422;45.892;4.738;2023-02-28T08:28:03;2.80;99.90
54516;DHT22;40422;45.892;4.738;2023-02-28T08:30:29;2.70;99.90
54516;DHT22;40422;45.892;4.738;2023-02-28T08:32:54;2.80;99.90
54516;DHT22;40422;45.892;4.738;2023-02-28T08:35:21;2.70;99.90
54516;DHT22;40422;45.892;4.738;2023-02-28T08:37:50;2.60;99.90
54516;DHT22;40422;45.892;4.738;2023-02-28T08:40:16;2.50;99.90
54516;DHT22;40422;45.892;4.738;2023-02-28T08:42:46;2.60;99.90
54516;DHT22;40422;45.892;4.738;2023-02-28T08:45:12;2.70;99.90
54516;DHT22;40422;45.892;4.738;2023-02-28T08:47:38;2.80;99.90
54516;DHT22;40422;45.892;4.738;2023-02-28T08:50:04;2.90;99.90
54516;DHT22;40422;45.892;4.738;2023-02-28T08:52:30;3.00;99.90
54516;DHT22;40422;45.892;4.738;2023-02-28T08:54:56;3.10;99.70
54516;DHT22;40422;45.892;4.738;2023-02-28T08:57:21;3.20;99.20
54516;DHT22;40422;45.892;4.738;2023-02-28T08:59:47;3.10;99.30
54516;DHT22;40422;45.892;4.738;2023-02-28T09:02:14;3.20;99.30
54516;DHT22;40422;45.892;4.738;2023-02-28T09:04:40;3.30;99.30
54516;DHT22;40422;45.892;4.738;2023-02-28T09:07:06;3.30;98.70
54516;DHT22;40422;45.892;4.738;2023-02-28T09:09:31;3.30;98.10
54516;DHT22;40422;45.892;4.738;2023-02-28T09:11:57;3.20;98.50
54516;DHT22;40422;45.892;4.738;2023-02-28T09:14:23;3.20;98.20
54516;DHT22;40422;45.892;4.738;2023-02-28T09:16:48;3.20;98.30
54516;DHT22;40422;45.892;4.738;2023-02-28T09:19:14;3.30;98.40
54516;DHT22;40422;45.892;4.738;2023-02-28T09:21:40;3.40;98.40
54516;DHT22;40422;45.892;4.738;2023-02-28T09:24:06;3.50;97.90
54516;DHT22;40422;45.892;4.738;2023-02-28T09:26:32;3.50;97.50
54516;DHT22;40422;45.892;4.738;2023-02-28T09:28:57;3.60;97.60
54516;DHT22;40422;45.892;4.738;2023-02-28T09:31:27;3.70;97.30
54516;DHT22;40422;45.892;4.738;2023-02-28T09:33:56;3.70;97.20
54516;DHT22;40422;45.892;4.738;2023-02-28T09:36:23;3.70;97.70
54516;DHT22;40422;45.892;4.738;2023-02-28T09:38:49;3.80;97.30
54516;DHT22;40422;45.892;4.738;2023-02-28T09:41:23;3.80;97.00
54516;DHT22;40422;45.892;4.738;2023-02-28T09:43:55;3.80;96.90
54516;DHT22;40422;45.892;4.738;2023-02-28T09:46:25;3.80;97.30
54516;DHT22;40422;45.892;4.738;2023-02-28T09:48:53;3.70;96.60
54516;DHT22;40422;45.892;4.738;2023-02-28T09:53:53;3.70;96.90
54516;DHT22;40422;45.892;4.738;2023-02-28T09:56:24;3.70;96.80
54516;DHT22;40422;45.892;4.738;2023-02-28T09:58:58;3.70;96.80
54516;DHT22;40422;45.892;4.738;2023-02-28T10:01:37;3.80;97.00
54516;DHT22;40422;45.892;4.738;2023-02-28T10:04:16;3.90;96.90
54516;DHT22;40422;45.892;4.738;2023-02-28T10:06:51;4.00;96.60
54516;DHT22;40422;45.892;4.738;2023-02-28T10:09:30;4.20;96.50
54516;DHT22;40422;45.892;4.738;2023-02-28T10:12:02;4.40;95.60
54516;DHT22;40422;45.892;4.738;2023-02-28T10:14:30;4.30;96.00
54516;DHT22;40422;45.892;4.738;2023-02-28T10:17:02;4.30;95.80
54516;DHT22;40422;45.892;4.738;2023-02-28T10:22:14;4.20;96.10
54516;DHT22;40422;45.892;4.738;2023-02-28T10:24:43;4.20;96.20
54516;DHT22;40422;45.892;4.738;2023-02-28T10:27:23;4.20;95.90
54516;DHT22;40422;45.892;4.738;2023-02-28T10:29:52;4.30;95.90
54516;DHT22;40422;45.892;4.738;2023-02-28T10:32:24;4.40;96.00
54516;DHT22;40422;45.892;4.738;2023-02-28T10:37:26;4.30;95.60
54516;DHT22;40422;45.892;4.738;2023-02-28T10:39:52;4.30;95.80
54516;DHT22;40422;45.892;4.738;2023-02-28T10:42:26;4.40;95.70
54516;DHT22;40422;45.892;4.738;2023-02-28T10:45:05;4.30;95.20
54516;DHT22;40422;45.892;4.738;2023-02-28T10:47:32;4.40;95.40
54516;DHT22;40422;45.892;4.738;2023-02-28T10:49:58;4.50;95.90
54516;DHT22;40422;45.892;4.738;2023-02-28T10:52:37;4.50;95.50
54516;DHT22;40422;45.892;4.738;2023-02-28T10:55:19;4.70;95.30
54516;DHT22;40422;45.892;4.738;2023-02-28T10:57:45;4.80;94.90
54516;DHT22;40422;45.892;4.738;2023-02-28T11:00:16;4.90;95.30
54516;DHT22;40422;45.892;4.738;2023-02-28T11:02:42;4.90;94.80
54516;DHT22;40422;45.892;4.738;2023-02-28T11:05:30;4.70;95.60
54516;DHT22;40422;45.892;4.738;2023-02-28T11:08:12;4.70;94.70
54516;DHT22;40422;45.892;4.738;2023-02-28T11:10:39;4.70;94.70
54516;DHT22;40422;45.892;4.738;2023-02-28T11:13:20;4.60;94.90
54516;DHT22;40422;45.892;4.738;2023-02-28T11:15:53;4.60;95.10
54516;DHT22;40422;45.892;4.738;2023-02-28T11:18:23;4.70;96.40
54516;DHT22;40422;45.892;4.738;2023-02-28T11:20:51;5.00;95.70
54516;DHT22;40422;45.892;4.738;2023-02-28T11:23:18;5.20;95.20
54516;DHT22;40422;45.892;4.738;2023-02-28T11:25:51;5.40;94.50
54516;DHT22;40422;45.892;4.738;2023-02-28T11:28:37;5.70;93.80
54516;DHT22;40422;45.892;4.738;2023-02-28T11:31:17;5.70;93.60
54516;DHT22;40422;45.892;4.738;2023-02-28T11:38:45;5.80;93.20
54516;DHT22;40422;45.892;4.738;2023-02-28T11:41:51;6.10;93.60
54516;DHT22;40422;45.892;4.738;2023-02-28T11:46:49;6.60;92.10
54516;DHT22;40422;45.892;4.738;2023-02-28T11:49:54;6.50;92.00
54516;DHT22;40422;45.892;4.738;2023-02-28T11:52:42;6.10;92.10
54516;DHT22;40422;45.892;4.738;2023-02-28T12:03:01;5.60;93.50
54516;DHT22;40422;45.892;4.738;2023-02-28T12:05:39;5.60;93.30
54516;DHT22;40422;45.892;4.738;2023-02-28T12:08:31;5.40;92.70
54516;DHT22;40422;45.892;4.738;2023-02-28T12:19:24;6.10;92.60
54516;DHT22;40422;45.892;4.738;2023-02-28T12:21:59;6.40;92.30
54516;DHT22;40422;45.892;4.738;2023-02-28T12:27:15;6.70;90.90
54516;DHT22;40422;45.892;4.738;2023-02-28T12:32:40;7.30;91.00
54516;DHT22;40422;45.892;4.738;2023-02-28T12:35:14;7.60;89.80
54516;DHT22;40422;45.892;4.738;2023-02-28T12:38:05;7.80;89.40
54516;DHT22;40422;45.892;4.738;2023-02-28T12:43:08;7.70;88.40
54516;DHT22;40422;45.892;4.738;2023-02-28T12:45:48;7.80;90.10
54516;DHT22;40422;45.892;4.738;2023-02-28T12:48:20;7.60;88.20
54516;DHT22;40422;45.892;4.738;2023-02-28T12:50:48;7.70;88.10
54516;DHT22;40422;45.892;4.738;2023-02-28T12:53:30;7.90;87.10
54516;DHT22;40422;45.892;4.738;2023-02-28T12:56:20;8.00;86.70
54516;DHT22;40422;45.892;4.738;2023-02-28T13:07:08;9.10;88.00
54516;DHT22;40422;45.892;4.738;2023-02-28T13:09:37;9.10;83.20
54516;DHT22;40422;45.892;4.738;2023-02-28T13:12:13;8.90;83.30
54516;DHT22;40422;45.892;4.738;2023-02-28T13:14:39;8.90;83.80
54516;DHT22;40422;45.892;4.738;2023-02-28T13:25:00;8.30;84.80
54516;DHT22;40422;45.892;4.738;2023-02-28T13:27:38;8.20;84.60
54516;DHT22;40422;45.892;4.738;2023-02-28T13:33:33;8.30;85.20
54516;DHT22;40422;45.892;4.738;2023-02-28T13:38:46;8.90;84.00
54516;DHT22;40422;45.892;4.738;2023-02-28T13:46:24;8.00;85.40
54516;DHT22;40422;45.892;4.738;2023-02-28T13:48:50;8.00;85.40
54516;DHT22;40422;45.892;4.738;2023-02-28T13:51:43;8.00;85.30
54516;DHT22;40422;45.892;4.738;2023-02-28T13:54:36;8.00;84.90
54516;DHT22;40422;45.892;4.738;2023-02-28T13:57:21;7.50;86.50
54516;DHT22;40422;45.892;4.738;2023-02-28T14:05:33;7.30;88.40
54516;DHT22;40422;45.892;4.738;2023-02-28T14:08:06;7.20;88.80
54516;DHT22;40422;45.892;4.738;2023-02-28T14:10:39;7.30;88.40
54516;DHT22;40422;45.892;4.738;2023-02-28T14:13:37;7.50;87.90
54516;DHT22;40422;45.892;4.738;2023-02-28T14:16:10;7.70;87.30
54516;DHT22;40422;45.892;4.738;2023-02-28T14:18:41;8.00;86.60
54516;DHT22;40422;45.892;4.738;2023-02-28T14:29:43;8.20;85.50
54516;DHT22;40422;45.892;4.738;2023-02-28T14:35:39;7.90;85.70
54516;DHT22;40422;45.892;4.738;2023-02-28T14:38:10;8.00;86.20
54516;DHT22;40422;45.892;4.738;2023-02-28T14:40:39;8.00;85.40
54516;DHT22;40422;45.892;4.738;2023-02-28T14:43:16;8.10;85.40
54516;DHT22;40422;45.892;4.738;2023-02-28T14:45:44;8.30;85.70
54516;DHT22;40422;45.892;4.738;2023-02-28T14:48:16;7.90;84.80
54516;DHT22;40422;45.892;4.738;2023-02-28T14:50:50;7.80;85.60
54516;DHT22;40422;45.892;4.738;2023-02-28T14:53:18;7.70;86.70
54516;DHT22;40422;45.892;4.738;2023-02-28T14:55:46;7.60;86.00
54516;DHT22;40422;45.892;4.738;2023-02-28T14:58:28;7.40;86.80
54516;DHT22;40422;45.892;4.738;2023-02-28T15:00:57;7.10;87.50
54516;DHT22;40422;45.892;4.738;2023-02-28T15:06:01;6.60;88.20
54516;DHT22;40422;45.892;4.738;2023-02-28T15:08:29;6.70;89.90
54516;DHT22;40422;45.892;4.738;2023-02-28T15:13:38;6.40;90.10
54516;DHT22;40422;45.892;4.738;2023-02-28T15:16:20;6.20;90.20
54516;DHT22;40422;45.892;4.738;2023-02-28T15:18:59;6.10;90.40
54516;DHT22;40422;45.892;4.738;2023-02-28T15:21:37;6.20;90.80
54516;DHT22;40422;45.892;4.738;2023-02-28T15:24:13;6.20;90.70
54516;DHT22;40422;45.892;4.738;2023-02-28T15:26:42;6.10;90.60
54516;DHT22;40422;45.892;4.738;2023-02-28T15:29:15;6.00;91.00
54516;DHT22;40422;45.892;4.738;2023-02-28T15:31:49;6.00;91.30
54516;DHT22;40422;45.892;4.738;2023-02-28T15:34:19;5.90;91.30
54516;DHT22;40422;45.892;4.738;2023-02-28T15:36:47;5.80;91.20
54516;DHT22;40422;45.892;4.738;2023-02-28T15:39:22;5.80;91.80
54516;DHT22;40422;45.892;4.738;2023-02-28T15:41:48;5.80;91.50
54516;DHT22;40422;45.892;4.738;2023-02-28T15:47:00;5.80;91.80
54516;DHT22;40422;45.892;4.738;2023-02-28T15:49:27;5.90;92.30
54516;DHT22;40422;45.892;4.738;2023-02-28T15:51:56;5.70;92.50
54516;DHT22;40422;45.892;4.738;2023-02-28T15:54:33;5.80;92.70
54516;DHT22;40422;45.892;4.738;2023-02-28T15:57:04;5.80;92.40
54516;DHT22;40422;45.892;4.738;2023-02-28T15:59:35;5.80;92.50
54516;DHT22;40422;45.892;4.738;2023-02-28T16:02:14;5.70;92.50
54516;DHT22;40422;45.892;4.738;2023-02-28T16:04:57;5.60;92.70
54516;DHT22;40422;45.892;4.738;2023-02-28T16:07:22;5.70;92.50
54516;DHT22;40422;45.892;4.738;2023-02-28T16:09:49;5.60;92.50
54516;DHT22;40422;45.892;4.738;2023-02-28T16:12:15;5.60;92.70
54516;DHT22;40422;45.892;4.738;2023-02-28T16:14:41;5.60;92.60
54516;DHT22;40422;45.892;4.738;2023-02-28T16:17:20;5.50;92.90
54516;DHT22;40422;45.892;4.738;2023-02-28T16:19:46;5.40;93.10
54516;DHT22;40422;45.892;4.738;2023-02-28T16:22:11;5.40;93.30
54516;DHT22;40422;45.892;4.738;2023-02-28T16:24:40;5.30;93.70
54516;DHT22;40422;45.892;4.738;2023-02-28T16:27:06;5.30;93.70
54516;DHT22;40422;45.892;4.738;2023-02-28T16:29:37;5.20;93.80
54516;DHT22;40422;45.892;4.738;2023-02-28T16:32:04;5.10;94.30
54516;DHT22;40422;45.892;4.738;2023-02-28T16:34:31;5.10;94.50
54516;DHT22;40422;45.892;4.738;2023-02-28T16:36:56;5.10;94.70
54516;DHT22;40422;45.892;4.738;2023-02-28T16:39:22;5.10;94.50
54516;DHT22;40422;45.892;4.738;2023-02-28T16:41:49;5.00;95.00
54516;DHT22;40422;45.892;4.738;2023-02-28T16:44:29;4.90;95.30
54516;DHT22;40422;45.892;4.738;2023-02-28T16:46:55;4.90;95.30
54516;DHT22;40422;45.892;4.738;2023-02-28T16:49:21;4.90;95.50
54516;DHT22;40422;45.892;4.738;2023-02-28T16:51:48;4.80;95.40
54516;DHT22;40422;45.892;4.738;2023-02-28T16:54:13;4.80;95.80
54516;DHT22;40422;45.892;4.738;2023-02-28T16:56:44;4.70;95.80
54516;DHT22;40422;45.892;4.738;2023-02-28T16:59:10;4.60;95.70
54516;DHT22;40422;45.892;4.738;2023-02-28T17:01:36;4.50;95.90
54516;DHT22;40422;45.892;4.738;2023-02-28T17:04:02;4.50;96.10
54516;DHT22;40422;45.892;4.738;2023-02-28T17:06:29;4.50;96.20
54516;DHT22;40422;45.892;4.738;2023-02-28T17:08:56;4.40;96.40
54516;DHT22;40422;45.892;4.738;2023-02-28T17:11:23;4.40;96.60
54516;DHT22;40422;45.892;4.738;2023-02-28T17:13:49;4.40;96.70
54516;DHT22;40422;45.892;4.738;2023-02-28T17:16:26;4.40;96.70
54516;DHT22;40422;45.892;4.738;2023-02-28T17:18:54;4.30;96.70
54516;DHT22;40422;45.892;4.738;2023-02-28T17:21:23;4.20;96.80
54516;DHT22;40422;45.892;4.738;2023-02-28T17:23:48;4.20;96.80
54516;DHT22;40422;45.892;4.738;2023-02-28T17:26:17;4.20;96.90
54516;DHT22;40422;45.892;4.738;2023-02-28T17:28:47;4.20;96.90
54516;DHT22;40422;45.892;4.738;2023-02-28T17:31:13;4.10;97.10
54516;DHT22;40422;45.892;4.738;2023-02-28T17:33:39;4.10;97.50
54516;DHT22;40422;45.892;4.738;2023-02-28T17:36:05;4.10;97.60
54516;DHT22;40422;45.892;4.738;2023-02-28T17:38:31;4.10;97.80
54516;DHT22;40422;45.892;4.738;2023-02-28T17:40:57;4.00;97.50
54516;DHT22;40422;45.892;4.738;2023-02-28T17:43:24;4.00;97.60
54516;DHT22;40422;45.892;4.738;2023-02-28T17:45:50;4.00;97.70
54516;DHT22;40422;45.892;4.738;2023-02-28T17:48:16;4.00;97.70
54516;DHT22;40422;45.892;4.738;2023-02-28T17:50:42;4.00;97.70
54516;DHT22;40422;45.892;4.738;2023-02-28T17:53:08;4.00;97.70
54516;DHT22;40422;45.892;4.738;2023-02-28T17:55:33;4.00;97.60
54516;DHT22;40422;45.892;4.738;2023-02-28T17:58:00;4.00;97.70
54516;DHT22;40422;45.892;4.738;2023-02-28T18:00:25;4.00;98.00
54516;DHT22;40422;45.892;4.738;2023-02-28T18:02:51;4.00;97.70
54516;DHT22;40422;45.892;4.738;2023-02-28T18:05:17;4.00;98.10
54516;DHT22;40422;45.892;4.738;2023-02-28T18:07:43;4.00;98.20
54516;DHT22;40422;45.892;4.738;2023-02-28T18:10:18;4.00;98.30
54516;DHT22;40422;45.892;4.738;2023-02-28T18:12:49;4.00;98.40
54516;DHT22;40422;45.892;4.738;2023-02-28T18:15:16;4.00;98.70
54516;DHT22;40422;45.892;4.738;2023-02-28T18:17:42;3.90;98.70
54516;DHT22;40422;45.892;4.738;2023-02-28T18:20:10;3.90;99.00
54516;DHT22;40422;45.892;4.738;2023-02-28T18:22:37;3.90;98.90
54516;DHT22;40422;45.892;4.738;2023-02-28T18:25:04;3.90;99.00
54516;DHT22;40422;45.892;4.738;2023-02-28T18:27:30;3.90;99.10
54516;DHT22;40422;45.892;4.738;2023-02-28T18:29:56;3.90;99.40
54516;DHT22;40422;45.892;4.738;2023-02-28T18:32:21;3.90;99.00
54516;DHT22;40422;45.892;4.738;2023-02-28T18:34:47;3.90;99.10
54516;DHT22;40422;45.892;4.738;2023-02-28T18:37:13;3.90;99.10
54516;DHT22;40422;45.892;4.738;2023-02-28T18:39:40;3.90;99.10
54516;DHT22;40422;45.892;4.738;2023-02-28T18:42:06;3.80;99.10
54516;DHT22;40422;45.892;4.738;2023-02-28T18:44:32;3.80;99.40
54516;DHT22;40422;45.892;4.738;2023-02-28T18:46:57;3.80;99.70
54516;DHT22;40422;45.892;4.738;2023-02-28T18:49:23;3.80;99.70
54516;DHT22;40422;45.892;4.738;2023-02-28T18:51:48;3.80;99.50
54516;DHT22;40422;45.892;4.738;2023-02-28T18:54:15;3.80;99.80
54516;DHT22;40422;45.892;4.738;2023-02-28T18:56:41;3.80;99.80
54516;DHT22;40422;45.892;4.738;2023-02-28T18:59:07;3.80;99.90
54516;DHT22;40422;45.892;4.738;2023-02-28T19:01:33;3.80;99.90
54516;DHT22;40422;45.892;4.738;2023-02-28T19:04:00;3.80;99.70
54516;DHT22;40422;45.892;4.738;2023-02-28T19:06:26;3.80;99.90
54516;DHT22;40422;45.892;4.738;2023-02-28T19:08:54;3.80;99.90
54516;DHT22;40422;45.892;4.738;2023-02-28T19:11:20;3.70;99.90
54516;DHT22;40422;45.892;4.738;2023-02-28T19:13:47;3.70;99.90
54516;DHT22;40422;45.892;4.738;2023-02-28T19:16:14;3.70;99.90
54516;DHT22;40422;45.892;4.738;2023-02-28T19:18:41;3.70;99.90
54516;DHT22;40422;45.892;4.738;2023-02-28T19:21:11;3.70;99.90
54516;DHT22;40422;45.892;4.738;2023-02-28T19:23:38;3.70;99.90
54516;DHT22;40422;45.892;4.738;2023-02-28T19:26:17;3.70;99.90
54516;DHT22;40422;45.892;4.738;2023-02-28T19:28:44;3.70;99.90
54516;DHT22;40422;45.892;4.738;2023-02-28T19:31:14;3.80;99.90
54516;DHT22;40422;45.892;4.738;2023-02-28T19:33:40;3.80;99.90
54516;DHT22;40422;45.892;4.738;2023-02-28T19:36:08;3.80;99.90
54516;DHT22;40422;45.892;4.738;2023-02-28T19:38:35;3.80;99.90
54516;DHT22;40422;45.892;4.738;2023-02-28T19:41:02;3.80;99.90
54516;DHT22;40422;45.892;4.738;2023-02-28T19:43:28;3.80;99.90
54516;DHT22;40422;45.892;4.738;2023-02-28T19:45:54;3.80;99.90
54516;DHT22;40422;45.892;4.738;2023-02-28T19:48:20;3.80;99.90
54516;DHT22;40422;45.892;4.738;2023-02-28T19:50:50;3.70;99.90
54516;DHT22;40422;45.892;4.738;2023-02-28T19:53:15;3.70;99.90
54516;DHT22;40422;45.892;4.738;2023-02-28T19:55:41;3.70;99.90
54516;DHT22;40422;45.892;4.738;2023-02-28T19:58:07;3.70;99.90
54516;DHT22;40422;45.892;4.738;2023-02-28T20:00:32;3.80;99.90
54516;DHT22;40422;45.892;4.738;2023-02-28T20:02:58;3.80;99.90
54516;DHT22;40422;45.892;4.738;2023-02-28T20:05:23;3.80;99.90
54516;DHT22;40422;45.892;4.738;2023-02-28T20:07:49;3.80;99.90
54516;DHT22;40422;45.892;4.738;2023-02-28T20:10:15;3.80;99.90
54516;DHT22;40422;45.892;4.738;2023-02-28T20:12:40;3.70;99.90
54516;DHT22;40422;45.892;4.738;2023-02-28T20:15:06;3.70;99.90
54516;DHT22;40422;45.892;4.738;2023-02-28T20:17:32;3.80;99.90
54516;DHT22;40422;45.892;4.738;2023-02-28T20:19:58;3.70;99.90
54516;DHT22;40422;45.892;4.738;2023-02-28T20:22:23;3.70;99.90
54516;DHT22;40422;45.892;4.738;2023-02-28T20:24:49;3.80;99.90
54516;DHT22;40422;45.892;4.738;2023-02-28T20:27:15;3.80;99.90
54516;DHT22;40422;45.892;4.738;2023-02-28T20:29:41;3.80;99.90
54516;DHT22;40422;45.892;4.738;2023-02-28T20:32:07;3.80;99.90
54516;DHT22;40422;45.892;4.738;2023-02-28T20:34:33;3.80;99.90
54516;DHT22;40422;45.892;4.738;2023-02-28T20:36:58;3.80;99.90
54516;DHT22;40422;45.892;4.738;2023-02-28T20:39:24;3.80;99.90
54516;DHT22;40422;45.892;4.738;2023-02-28T20:41:50;3.90;99.90
54516;DHT22;40422;45.892;4.738;2023-02-28T20:44:16;3.90;99.90
54516;DHT22;40422;45.892;4.738;2023-02-28T20:46:41;3.90;99.90
54516;DHT22;40422;45.892;4.738;2023-02-28T20:49:09;3.90;99.90
54516;DHT22;40422;45.892;4.738;2023-02-28T20:51:35;3.90;99.90
54516;DHT22;40422;45.892;4.738;2023-02-28T20:54:08;3.90;99.90
54516;DHT22;40422;45.892;4.738;2023-02-28T20:56:35;3.80;99.90
54516;DHT22;40422;45.892;4.738;2023-02-28T20:59:01;3.80;99.90
